createdAt,value
2022-10-20T00:00:15.455Z,9.70
2022-10-20T00:01:15.395Z,9.90
2022-10-20T00:02:15.432Z,10.10
2022-10-20T00:03:15.375Z,10.50
2022-10-20T00:04:15.335Z,10.20
2022-10-20T00:05:15.321Z,10.60
2022-10-20T00:06:15.398Z,9.30
2022-10-20T00:07:15.302Z,7.80
2022-10-20T00:08:15.307Z,8.10
2022-10-20T00:09:15.326Z,8.80
2022-10-20T00:10:15.254Z,7.80
2022-10-20T00:11:15.337Z,7.20
2022-10-20T00:12:15.264Z,8.90
2022-10-20T00:13:15.257Z,8.00
2022-10-20T00:15:36.676Z,7.80
2022-10-20T00:16:36.695Z,8.20
2022-10-20T00:17:36.666Z,7.80
2022-10-20T00:18:36.678Z,7.70
2022-10-20T00:19:36.616Z,6.50
2022-10-20T00:20:37.616Z,6.20
2022-10-20T00:21:36.637Z,5.10
2022-10-20T00:22:36.769Z,5.40
2022-10-20T00:23:36.618Z,5.60
2022-10-20T00:24:36.616Z,5.70
2022-10-20T00:25:36.536Z,5.20
2022-10-20T00:26:36.566Z,6.00
2022-10-20T00:27:36.540Z,5.70
2022-10-20T00:28:36.496Z,5.30
2022-10-20T00:29:36.487Z,5.50
2022-10-20T00:30:36.476Z,5.50
2022-10-20T00:31:36.498Z,5.30
2022-10-20T00:32:36.841Z,5.70
2022-10-20T00:33:36.443Z,7.00
2022-10-20T00:34:36.490Z,6.30
2022-10-20T00:35:36.418Z,6.60
2022-10-20T00:36:36.409Z,6.50
2022-10-20T00:37:36.398Z,7.70
2022-10-20T00:38:36.409Z,7.40
2022-10-20T00:39:36.368Z,6.10
2022-10-20T00:40:36.419Z,7.20
2022-10-20T00:41:36.359Z,8.30
2022-10-20T00:42:36.526Z,6.70
2022-10-20T00:43:36.348Z,6.80
2022-10-20T00:44:36.349Z,7.20
2022-10-20T00:45:36.357Z,6.40
2022-10-20T00:46:36.283Z,5.60
2022-10-20T00:47:36.416Z,5.40
2022-10-20T00:48:36.271Z,4.70
2022-10-20T00:49:36.280Z,6.00
2022-10-20T00:50:36.289Z,5.40
2022-10-20T00:51:36.219Z,5.40
2022-10-20T00:52:36.636Z,6.10
2022-10-20T00:53:36.200Z,6.10
2022-10-20T00:55:46.401Z,4.70
2022-10-20T00:56:46.385Z,6.20
2022-10-20T00:57:46.471Z,6.60
2022-10-20T00:58:46.371Z,6.40
2022-10-20T00:59:46.383Z,7.40
2022-10-20T01:00:48.361Z,6.60
2022-10-20T01:01:46.362Z,6.70
2022-10-20T01:02:46.399Z,7.70
2022-10-20T01:03:46.311Z,6.80
2022-10-20T01:04:46.322Z,7.90
2022-10-20T01:05:47.342Z,8.60
2022-10-20T01:06:46.272Z,8.10
2022-10-20T01:07:46.355Z,8.40
2022-10-20T01:08:46.299Z,8.80
2022-10-20T01:09:46.252Z,7.90
2022-10-20T01:10:46.251Z,8.00
2022-10-20T01:11:46.304Z,8.60
2022-10-20T01:12:46.173Z,8.60
2022-10-20T01:13:46.173Z,8.80
2022-10-20T01:14:46.190Z,9.10
2022-10-20T01:15:46.198Z,8.90
2022-10-20T01:16:46.228Z,10.40
2022-10-20T01:17:46.115Z,9.10
2022-10-20T01:18:46.116Z,10.40
2022-10-20T01:19:46.113Z,11.00
2022-10-20T01:20:46.122Z,9.50
2022-10-20T01:21:46.155Z,10.80
2022-10-20T01:22:46.134Z,9.50
2022-10-20T01:24:56.266Z,9.10
2022-10-20T01:25:56.287Z,8.80
2022-10-20T01:26:56.328Z,8.70
2022-10-20T01:27:56.308Z,9.40
2022-10-20T01:28:56.308Z,10.10
2022-10-20T01:29:56.218Z,10.40
2022-10-20T01:30:56.188Z,9.40
2022-10-20T01:31:56.285Z,11.00
2022-10-20T01:32:56.157Z,10.90
2022-10-20T01:33:56.243Z,10.50
2022-10-20T01:34:56.142Z,10.20
2022-10-20T01:35:56.160Z,10.30
2022-10-20T01:36:56.198Z,11.40
2022-10-20T01:37:56.448Z,11.80
2022-10-20T01:38:56.190Z,10.50
2022-10-20T01:39:56.078Z,10.60
2022-10-20T01:40:56.090Z,10.40
2022-10-20T01:41:56.131Z,11.30
2022-10-20T01:42:56.034Z,11.40
2022-10-20T01:43:56.120Z,11.20
2022-10-20T01:44:56.019Z,11.10
2022-10-20T01:47:06.227Z,11.00
2022-10-20T01:48:06.274Z,12.40
2022-10-20T01:49:06.192Z,11.50
2022-10-20T01:50:06.178Z,11.90
2022-10-20T01:51:06.194Z,11.00
2022-10-20T01:52:06.234Z,11.20
2022-10-20T01:53:06.134Z,11.70
2022-10-20T01:54:06.215Z,12.20
2022-10-20T01:55:06.224Z,12.00
2022-10-20T01:56:06.116Z,12.10
2022-10-20T01:57:06.096Z,12.10
2022-10-20T01:58:06.136Z,12.00
2022-10-20T01:59:06.065Z,12.00
2022-10-20T02:00:06.154Z,12.10
2022-10-20T02:01:06.058Z,12.00
2022-10-20T02:02:06.101Z,13.00
2022-10-20T02:03:06.077Z,12.10
2022-10-20T02:04:06.004Z,12.80
2022-10-20T02:05:05.975Z,10.90
2022-10-20T02:06:06.005Z,12.20
2022-10-20T02:07:06.026Z,11.40
2022-10-20T02:08:07.025Z,11.90
2022-10-20T02:09:05.936Z,12.20
2022-10-20T02:10:06.037Z,11.70
2022-10-20T02:11:05.928Z,12.00
2022-10-20T02:12:05.966Z,13.40
2022-10-20T02:13:05.936Z,10.60
2022-10-20T02:14:05.868Z,11.90
2022-10-20T02:15:05.851Z,12.00
2022-10-20T02:16:05.858Z,13.00
2022-10-20T02:17:05.898Z,12.10
2022-10-20T02:18:05.867Z,13.00
2022-10-20T02:19:05.868Z,12.00
2022-10-20T02:20:05.892Z,13.10
2022-10-20T02:21:05.787Z,12.10
2022-10-20T02:22:05.830Z,12.00
2022-10-20T02:23:05.748Z,13.60
2022-10-20T02:24:05.749Z,12.70
2022-10-20T02:25:05.828Z,12.90
2022-10-20T02:26:05.817Z,13.50
2022-10-20T02:27:05.755Z,13.70
2022-10-20T02:28:05.691Z,13.30
2022-10-20T02:29:05.756Z,11.80
2022-10-20T02:30:05.755Z,11.80
2022-10-20T02:31:05.647Z,13.40
2022-10-20T02:32:05.648Z,13.60
2022-10-20T02:33:05.659Z,12.70
2022-10-20T02:34:05.615Z,13.20
2022-10-20T02:35:06.780Z,13.90
2022-10-20T02:36:05.689Z,12.70
2022-10-20T02:37:05.643Z,14.40
2022-10-20T02:38:05.568Z,12.90
2022-10-20T02:40:15.808Z,14.00
2022-10-20T02:41:40.038Z,14.90
2022-10-20T02:42:15.789Z,13.50
2022-10-20T02:43:15.770Z,13.60
2022-10-20T02:45:25.985Z,15.40
2022-10-20T02:46:30.256Z,13.50
2022-10-20T02:47:25.963Z,13.30
2022-10-20T02:48:34.472Z,15.70
2022-10-20T02:49:33.440Z,13.20
2022-10-20T02:50:25.920Z,15.30
2022-10-20T02:51:34.599Z,15.20
2022-10-20T02:52:25.894Z,15.10
2022-10-20T02:53:34.394Z,15.60
2022-10-20T02:54:33.387Z,14.70
2022-10-20T02:55:33.352Z,14.70
2022-10-20T02:56:28.900Z,13.70
2022-10-20T02:57:34.802Z,13.90
2022-10-20T02:58:34.334Z,13.80
2022-10-20T02:59:25.802Z,12.70
2022-10-20T03:01:35.064Z,13.10
2022-10-20T03:02:42.456Z,13.50
2022-10-20T03:03:42.462Z,12.70
2022-10-20T03:04:42.436Z,13.80
2022-10-20T03:05:42.427Z,13.70
2022-10-20T03:06:35.014Z,14.80
2022-10-20T03:07:35.422Z,14.70
2022-10-20T03:08:34.894Z,13.60
2022-10-20T03:09:34.876Z,13.60
2022-10-20T03:10:34.906Z,14.20
2022-10-20T03:11:34.943Z,14.80
2022-10-20T03:12:34.932Z,14.30
2022-10-20T03:13:34.827Z,14.80
2022-10-20T03:14:35.847Z,13.50
2022-10-20T03:15:34.849Z,15.50
2022-10-20T03:16:34.786Z,13.70
2022-10-20T03:17:36.232Z,13.70
2022-10-20T03:18:34.864Z,14.50
2022-10-20T03:19:34.766Z,13.80
2022-10-20T03:20:34.766Z,13.70
2022-10-20T03:21:34.809Z,14.70
2022-10-20T03:22:34.788Z,13.00
2022-10-20T03:23:35.714Z,13.40
2022-10-20T03:24:34.700Z,12.70
2022-10-20T03:25:34.727Z,12.70
2022-10-20T03:26:34.737Z,11.10
2022-10-20T03:27:35.166Z,12.90
2022-10-20T03:28:34.627Z,10.70
2022-10-20T03:29:34.622Z,11.60
2022-10-20T03:30:34.638Z,15.40
2022-10-20T03:31:34.794Z,13.20
2022-10-20T03:32:34.824Z,14.90
2022-10-20T03:33:34.647Z,13.80
2022-10-20T03:34:35.607Z,12.90
2022-10-20T03:35:34.562Z,13.70
2022-10-20T03:36:34.607Z,14.80
2022-10-20T03:37:34.588Z,12.60
2022-10-20T03:38:34.589Z,13.50
2022-10-20T03:39:34.705Z,14.40
2022-10-20T03:40:34.495Z,14.10
2022-10-20T03:41:34.561Z,13.30
2022-10-20T03:42:34.908Z,14.40
2022-10-20T03:43:34.454Z,13.60
2022-10-20T03:44:34.459Z,14.10
2022-10-20T03:45:34.430Z,13.00
2022-10-20T03:46:34.427Z,12.10
2022-10-20T03:47:34.404Z,13.90
2022-10-20T03:48:34.380Z,8.90
2022-10-20T03:49:34.462Z,12.40
2022-10-20T04:02:49.001Z,10.10
2022-10-20T04:03:48.971Z,9.20
2022-10-20T04:04:48.971Z,10.60
2022-10-20T04:05:48.952Z,10.90
2022-10-20T04:06:48.962Z,10.70
2022-10-20T04:07:48.932Z,8.40
2022-10-20T04:08:49.001Z,8.90
2022-10-20T04:09:48.902Z,9.50
2022-10-20T04:10:48.903Z,9.50
2022-10-20T04:11:49.911Z,8.10
2022-10-20T04:12:48.872Z,7.00
2022-10-20T04:13:48.865Z,6.30
2022-10-20T04:14:48.843Z,6.00
2022-10-20T04:15:48.832Z,6.60
2022-10-20T04:16:48.833Z,7.30
2022-10-20T04:17:49.793Z,5.90
2022-10-20T04:18:48.802Z,7.40
2022-10-20T04:19:48.782Z,8.10
2022-10-20T04:20:49.763Z,8.60
2022-10-20T04:21:49.762Z,9.30
2022-10-20T04:22:48.763Z,11.40
2022-10-20T04:23:48.723Z,11.80
2022-10-20T04:24:48.724Z,11.00
2022-10-20T04:25:48.716Z,13.30
2022-10-20T04:27:48.681Z,13.80
2022-10-20T04:28:48.667Z,14.10
2022-10-20T04:29:48.653Z,12.70
2022-10-20T04:30:48.647Z,12.50
2022-10-20T04:31:49.278Z,13.20
2022-10-20T04:32:48.614Z,11.90
2022-10-20T04:33:48.614Z,12.60
2022-10-20T04:34:48.595Z,15.10
2022-10-20T04:36:48.565Z,11.40
2022-10-20T04:37:48.559Z,9.40
2022-10-20T04:38:48.535Z,8.30
2022-10-20T04:39:48.518Z,8.00
2022-10-20T04:40:48.506Z,8.20
2022-10-20T04:41:48.510Z,8.70
2022-10-20T04:42:48.505Z,12.90
2022-10-20T04:43:48.481Z,11.80
2022-10-20T04:44:48.547Z,13.20
2022-10-20T04:45:48.446Z,13.70
2022-10-20T04:46:48.449Z,15.30
2022-10-20T04:47:48.415Z,12.00
2022-10-20T04:48:48.417Z,12.00
2022-10-20T04:49:48.388Z,11.20
2022-10-20T04:50:48.398Z,11.40
2022-10-20T04:51:48.383Z,10.40
2022-10-20T04:52:48.356Z,11.70
2022-10-20T04:53:49.337Z,13.70
2022-10-20T04:54:48.327Z,9.80
2022-10-20T04:55:48.328Z,13.30
2022-10-20T04:56:48.315Z,11.70
2022-10-20T04:57:48.288Z,10.30
2022-10-20T04:58:49.279Z,12.40
2022-10-20T04:59:48.275Z,13.00
2022-10-20T05:00:48.258Z,10.40
2022-10-20T05:01:48.428Z,10.20
2022-10-20T05:02:48.229Z,10.70
2022-10-20T05:03:48.218Z,8.60
2022-10-20T05:04:48.197Z,10.00
2022-10-20T05:05:48.190Z,7.40
2022-10-20T05:06:48.192Z,7.90
2022-10-20T05:07:48.158Z,6.80
2022-10-20T05:08:48.196Z,7.00
2022-10-20T05:09:48.139Z,7.90
2022-10-20T05:10:48.129Z,8.80
2022-10-20T05:11:48.120Z,8.30
2022-10-20T05:12:48.102Z,9.60
2022-10-20T05:13:48.086Z,10.40
2022-10-20T05:14:48.090Z,8.10
2022-10-20T05:15:48.060Z,12.90
2022-10-20T05:16:48.070Z,9.80
2022-10-20T05:17:48.039Z,10.10
2022-10-20T05:18:48.020Z,8.10
2022-10-20T05:19:48.010Z,6.80
2022-10-20T05:21:10.225Z,7.80
2022-10-20T05:21:48.992Z,7.90
2022-10-20T05:22:47.984Z,8.30
2022-10-20T05:23:47.969Z,8.20
2022-10-20T05:24:47.961Z,7.40
2022-10-20T05:25:47.935Z,9.20
2022-10-20T05:26:47.934Z,9.70
2022-10-20T05:27:47.915Z,10.40
2022-10-20T05:28:47.919Z,8.70
2022-10-20T05:29:47.912Z,11.30
2022-10-20T05:30:47.872Z,9.30
2022-10-20T05:31:47.872Z,10.70
2022-10-20T05:32:47.844Z,11.10
2022-10-20T05:33:47.834Z,11.00
2022-10-20T05:34:48.811Z,9.70
2022-10-20T05:35:47.802Z,10.30
2022-10-20T05:36:47.804Z,9.50
2022-10-20T05:37:47.780Z,8.40
2022-10-20T05:38:47.773Z,8.70
2022-10-20T05:40:47.753Z,11.40
2022-10-20T05:41:47.732Z,13.70
2022-10-20T05:42:47.714Z,13.60
2022-10-20T05:43:47.702Z,13.40
2022-10-20T05:44:48.684Z,9.50
2022-10-20T05:45:47.673Z,13.00
2022-10-20T05:46:47.673Z,14.40
2022-10-20T05:47:47.642Z,14.60
2022-10-20T05:48:47.655Z,12.60
2022-10-20T05:49:47.626Z,15.20
2022-10-20T05:50:47.630Z,15.70
2022-10-20T05:51:47.606Z,12.40
2022-10-20T05:52:47.583Z,15.60
2022-10-20T05:53:47.571Z,17.30
2022-10-20T05:54:47.571Z,16.70
2022-10-20T05:55:47.555Z,16.00
2022-10-20T05:56:47.547Z,12.40
2022-10-20T05:57:47.525Z,12.40
2022-10-20T05:58:47.533Z,11.80
2022-10-20T05:59:47.505Z,10.20
2022-10-20T06:00:47.485Z,9.90
2022-10-20T06:01:47.562Z,13.00
2022-10-20T06:02:47.470Z,9.40
2022-10-20T06:03:47.454Z,8.50
2022-10-20T06:04:47.438Z,9.30
2022-10-20T06:05:47.426Z,12.10
2022-10-20T06:06:47.418Z,11.70
2022-10-20T06:07:47.394Z,11.40
2022-10-20T06:08:47.423Z,13.80
2022-10-20T06:09:47.374Z,13.80
2022-10-20T06:10:47.356Z,15.80
2022-10-20T06:11:47.370Z,15.20
2022-10-20T06:12:47.338Z,14.20
2022-10-20T06:13:50.107Z,13.10
2022-10-20T06:14:48.306Z,11.20
2022-10-20T06:15:47.296Z,12.40
2022-10-20T06:16:47.358Z,11.40
2022-10-20T06:17:47.277Z,11.00
2022-10-20T06:18:47.269Z,12.20
2022-10-20T06:19:47.247Z,13.20
2022-10-20T06:20:48.231Z,10.40
2022-10-20T06:21:48.934Z,10.80
2022-10-20T06:22:47.208Z,12.80
2022-10-20T06:23:47.198Z,10.00
2022-10-20T06:24:47.178Z,9.50
2022-10-20T06:25:48.157Z,10.40
2022-10-20T06:26:47.161Z,9.50
2022-10-20T06:27:47.128Z,12.70
2022-10-20T06:28:47.128Z,13.10
2022-10-20T06:29:47.118Z,13.20
2022-10-20T06:30:48.096Z,12.00
2022-10-20T06:31:47.155Z,10.40
2022-10-20T06:32:47.078Z,11.80
2022-10-20T06:33:47.060Z,13.70
2022-10-20T06:34:47.078Z,11.50
2022-10-20T06:35:47.037Z,11.20
2022-10-20T06:36:47.080Z,10.60
2022-10-20T06:37:47.029Z,11.40
2022-10-20T06:38:46.998Z,9.20
2022-10-20T06:39:46.990Z,8.50
2022-10-20T06:40:46.983Z,6.50
2022-10-20T06:41:46.970Z,9.10
2022-10-20T06:42:46.993Z,7.70
2022-10-20T06:43:46.931Z,9.90
2022-10-20T06:44:46.920Z,10.50
2022-10-20T06:45:46.900Z,12.00
2022-10-20T06:46:46.891Z,9.20
2022-10-20T06:47:46.912Z,9.50
2022-10-20T06:48:46.880Z,9.70
2022-10-20T06:49:46.850Z,8.70
2022-10-20T06:50:46.850Z,9.30
2022-10-20T06:51:46.840Z,10.10
2022-10-20T06:52:46.812Z,9.90
2022-10-20T06:53:46.985Z,9.90
2022-10-20T06:54:46.805Z,10.10
2022-10-20T06:55:46.772Z,11.80
2022-10-20T06:56:46.772Z,10.90
2022-10-20T06:57:46.753Z,11.90
2022-10-20T06:58:46.739Z,12.90
2022-10-20T06:59:46.738Z,12.30
2022-10-20T07:00:46.723Z,13.10
2022-10-20T07:01:46.746Z,13.90
2022-10-20T07:02:46.702Z,12.80
2022-10-20T07:03:46.675Z,12.20
2022-10-20T07:04:46.676Z,12.20
2022-10-20T07:05:46.657Z,13.00
2022-10-20T07:06:46.642Z,10.80
2022-10-20T07:07:46.633Z,10.20
2022-10-20T07:08:46.727Z,8.90
2022-10-20T07:09:46.593Z,9.70
2022-10-20T07:10:46.591Z,9.90
2022-10-20T07:11:46.619Z,9.10
2022-10-20T07:12:46.557Z,9.70
2022-10-20T07:13:46.555Z,9.60
2022-10-20T07:14:46.528Z,19.20
2022-10-20T07:15:46.526Z,11.90
2022-10-20T07:16:46.534Z,19.80
2022-10-20T07:17:46.504Z,11.70
2022-10-20T07:18:46.498Z,12.10
2022-10-20T07:19:46.473Z,10.10
2022-10-20T07:20:46.470Z,8.10
2022-10-20T07:21:46.444Z,8.10
2022-10-20T07:22:46.426Z,7.70
2022-10-20T07:23:46.446Z,9.00
2022-10-20T07:24:46.415Z,8.40
2022-10-20T07:25:46.386Z,9.80
2022-10-20T07:26:46.395Z,8.80
2022-10-20T07:27:46.368Z,9.50
2022-10-20T07:28:46.346Z,8.10
2022-10-20T07:29:46.347Z,9.00
2022-10-20T07:30:46.336Z,9.70
2022-10-20T07:31:46.318Z,8.60
2022-10-20T07:32:46.307Z,8.50
2022-10-20T07:34:00.925Z,10.40
2022-10-20T07:34:47.317Z,13.00
2022-10-20T07:35:46.266Z,9.10
2022-10-20T07:36:46.255Z,7.60
2022-10-20T07:37:46.235Z,8.50
2022-10-20T07:38:46.233Z,8.20
2022-10-20T07:39:46.198Z,8.50
2022-10-20T07:40:46.197Z,7.30
2022-10-20T07:41:46.188Z,8.20
2022-10-20T07:42:46.168Z,8.50
2022-10-20T07:43:46.166Z,7.50
2022-10-20T07:44:46.157Z,8.70
2022-10-20T07:45:46.121Z,13.10
2022-10-20T07:46:46.135Z,11.50
2022-10-20T07:47:47.675Z,10.80
2022-10-20T07:48:46.098Z,9.30
2022-10-20T07:49:46.084Z,8.60
2022-10-20T07:50:46.059Z,9.50
2022-10-20T07:51:46.058Z,9.00
2022-10-20T07:52:46.050Z,7.80
2022-10-20T07:53:46.033Z,8.80
2022-10-20T07:54:46.020Z,7.60
2022-10-20T07:55:45.996Z,7.50
2022-10-20T07:56:45.999Z,8.20
2022-10-20T07:57:45.970Z,8.20
2022-10-20T07:58:45.959Z,8.90
2022-10-20T07:59:45.948Z,7.80
2022-10-20T08:00:45.936Z,7.80
2022-10-20T08:01:45.991Z,6.90
2022-10-20T08:02:45.923Z,7.40
2022-10-20T08:03:45.901Z,7.60
2022-10-20T08:04:45.983Z,7.80
2022-10-20T08:05:45.889Z,7.50
2022-10-20T08:06:45.898Z,7.80
2022-10-20T08:07:45.843Z,7.60
2022-10-20T08:08:45.878Z,8.40
2022-10-20T08:10:45.806Z,7.60
2022-10-20T08:11:45.791Z,6.60
2022-10-20T08:12:45.781Z,6.80
2022-10-20T08:13:45.768Z,6.00
2022-10-20T08:14:45.821Z,6.40
2022-10-20T08:15:45.799Z,6.80
2022-10-20T08:16:49.513Z,7.00
2022-10-20T08:17:45.721Z,6.60
2022-10-20T08:18:48.661Z,6.60
2022-10-20T08:19:50.715Z,6.90
2022-10-20T08:20:45.707Z,6.40
2022-10-20T08:21:45.673Z,6.50
2022-10-20T08:22:46.646Z,6.70
2022-10-20T08:23:45.644Z,5.80
2022-10-20T08:24:45.671Z,5.70
2022-10-20T08:25:45.615Z,5.80
2022-10-20T08:26:46.614Z,5.90
2022-10-20T08:27:45.675Z,5.80
2022-10-20T08:28:45.583Z,6.00
2022-10-20T08:29:50.951Z,6.00
2022-10-20T08:30:46.546Z,7.20
2022-10-20T08:31:46.540Z,7.90
2022-10-20T08:32:45.514Z,8.10
2022-10-20T08:33:50.063Z,7.70
2022-10-20T08:34:46.486Z,7.50
2022-10-20T08:35:45.486Z,6.50
2022-10-20T08:36:45.495Z,5.70
2022-10-20T08:37:45.457Z,5.70
2022-10-20T08:38:45.428Z,5.20
2022-10-20T08:39:45.427Z,6.00
2022-10-20T08:40:45.409Z,6.40
2022-10-20T08:42:46.386Z,5.90
2022-10-20T08:43:45.386Z,5.80
2022-10-20T08:44:45.381Z,6.20
2022-10-20T08:45:45.369Z,5.80
2022-10-20T08:46:45.344Z,6.90
2022-10-20T08:47:45.330Z,5.40
2022-10-20T08:48:45.326Z,5.90
2022-10-20T08:49:45.316Z,5.50
2022-10-20T08:50:45.281Z,6.40
2022-10-20T08:51:45.303Z,6.80
2022-10-20T08:52:45.272Z,7.00
2022-10-20T08:53:45.260Z,6.10
2022-10-20T08:54:45.256Z,6.60
2022-10-20T08:55:45.230Z,6.80
2022-10-20T08:56:45.235Z,6.90
2022-10-20T08:57:45.202Z,5.40
2022-10-20T08:58:45.190Z,6.30
2022-10-20T08:59:45.181Z,5.80
2022-10-20T09:00:45.171Z,5.60
2022-10-20T09:01:45.222Z,5.80
2022-10-20T09:02:45.140Z,5.00
2022-10-20T09:03:46.131Z,5.10
2022-10-20T09:04:45.114Z,5.00
2022-10-20T09:05:45.112Z,4.40
2022-10-20T09:06:45.124Z,4.40
2022-10-20T09:07:45.086Z,4.70
2022-10-20T09:08:45.105Z,4.40
2022-10-20T09:09:45.060Z,3.60
2022-10-20T09:10:45.044Z,4.10
2022-10-20T09:11:45.051Z,4.60
2022-10-20T09:12:45.013Z,4.00
2022-10-20T09:13:45.025Z,4.40
2022-10-20T09:14:44.997Z,4.20
2022-10-20T09:15:44.981Z,3.50
2022-10-20T09:16:59.297Z,3.40
2022-10-20T09:17:45.955Z,3.80
2022-10-20T09:18:44.936Z,3.70
2022-10-20T09:19:45.929Z,3.80
2022-10-20T09:20:44.904Z,4.10
2022-10-20T09:21:44.914Z,3.80
2022-10-20T09:22:44.892Z,4.00
2022-10-20T09:23:44.918Z,4.30
2022-10-20T09:24:44.857Z,4.90
2022-10-20T09:25:44.846Z,3.80
2022-10-20T09:26:58.248Z,4.30
2022-10-20T09:27:45.816Z,3.60
2022-10-20T09:29:08.656Z,3.60
2022-10-20T09:29:45.799Z,3.90
2022-10-20T09:30:44.778Z,3.90
2022-10-20T09:31:44.769Z,4.10
2022-10-20T09:32:47.328Z,3.60
2022-10-20T09:33:45.748Z,4.20
2022-10-20T09:34:44.729Z,3.90
2022-10-20T09:35:44.719Z,3.70
2022-10-20T09:36:44.725Z,4.20
2022-10-20T09:37:44.689Z,3.80
2022-10-20T09:38:44.678Z,3.90
2022-10-20T09:39:45.667Z,3.70
2022-10-20T09:40:44.650Z,3.20
2022-10-20T09:41:44.652Z,3.10
2022-10-20T09:42:44.624Z,3.20
2022-10-20T09:43:44.626Z,3.70
2022-10-20T09:44:45.601Z,3.60
2022-10-20T09:45:44.599Z,3.30
2022-10-20T09:46:44.591Z,4.10
2022-10-20T10:03:20.116Z,3.70
2022-10-20T10:04:20.087Z,3.90
2022-10-20T10:05:21.093Z,3.90
2022-10-20T10:06:20.071Z,3.30
2022-10-20T10:07:20.082Z,3.30
2022-10-20T10:08:20.056Z,3.50
2022-10-20T10:09:20.058Z,3.30
2022-10-20T10:10:20.054Z,3.30
2022-10-20T10:11:19.993Z,3.60
2022-10-20T10:12:19.992Z,3.10
2022-10-20T10:13:22.493Z,6.40
2022-10-20T10:14:19.960Z,4.20
2022-10-20T10:15:19.939Z,3.70
2022-10-20T10:16:19.939Z,6.00
2022-10-20T10:17:19.952Z,3.90
2022-10-20T10:18:19.912Z,3.10
2022-10-20T10:19:19.900Z,3.40
2022-10-20T10:20:19.882Z,3.50
2022-10-20T10:21:19.875Z,3.00
2022-10-20T10:22:19.881Z,3.40
2022-10-20T10:23:19.844Z,2.80
2022-10-20T10:24:19.841Z,2.60
2022-10-20T10:25:19.811Z,2.80
2022-10-20T10:26:19.816Z,2.50
2022-10-20T10:27:19.812Z,2.80
2022-10-20T10:28:19.814Z,3.00
2022-10-20T10:29:19.764Z,2.70
2022-10-20T10:30:19.776Z,2.50
2022-10-20T10:31:19.750Z,3.00
2022-10-20T10:32:19.744Z,2.80
2022-10-20T10:33:19.716Z,2.90
2022-10-20T10:34:19.717Z,3.10
2022-10-20T10:35:19.693Z,2.80
2022-10-20T10:36:19.685Z,2.90
2022-10-20T10:38:19.646Z,2.90
2022-10-20T10:39:19.647Z,2.70
2022-10-20T10:40:19.636Z,2.90
2022-10-20T10:41:19.608Z,2.80
2022-10-20T10:42:19.617Z,3.00
2022-10-20T10:43:19.579Z,3.00
2022-10-20T10:44:19.587Z,2.90
2022-10-20T10:45:19.574Z,2.70
2022-10-20T10:46:19.558Z,3.10
2022-10-20T10:47:19.556Z,2.50
2022-10-20T10:48:19.520Z,3.00
2022-10-20T10:49:19.514Z,2.70
2022-10-20T10:50:19.490Z,2.20
2022-10-20T10:51:19.491Z,2.40
2022-10-20T10:52:19.479Z,2.60
2022-10-20T10:53:19.450Z,2.90
2022-10-20T10:54:19.450Z,2.60
2022-10-20T10:55:43.817Z,2.70
2022-10-20T10:56:20.422Z,2.60
2022-10-20T10:57:19.411Z,3.00
2022-10-20T10:58:19.407Z,2.60
2022-10-20T10:59:19.382Z,2.90
2022-10-20T11:00:19.374Z,3.00
2022-10-20T11:01:19.440Z,2.70
2022-10-20T11:02:19.360Z,2.60
2022-10-20T11:03:19.343Z,2.60
2022-10-20T11:04:19.322Z,2.60
2022-10-20T11:05:19.297Z,2.20
2022-10-20T11:06:19.297Z,2.50
2022-10-20T11:07:19.299Z,2.30
2022-10-20T11:08:19.274Z,2.70
2022-10-20T11:09:19.537Z,3.10
2022-10-20T11:10:19.245Z,2.70
2022-10-20T11:11:19.234Z,3.10
2022-10-20T11:12:19.226Z,2.40
2022-10-20T11:13:22.965Z,2.60
2022-10-20T11:15:19.177Z,2.60
2022-10-20T11:16:19.167Z,2.70
2022-10-20T11:17:19.194Z,2.60
2022-10-20T11:18:19.158Z,2.50
2022-10-20T11:19:19.127Z,2.80
2022-10-20T11:20:19.110Z,2.50
2022-10-20T11:21:19.097Z,2.30
2022-10-20T11:22:19.100Z,3.00
2022-10-20T11:23:19.083Z,2.60
2022-10-20T11:24:19.097Z,2.70
2022-10-20T11:25:19.062Z,2.60
2022-10-20T11:26:19.058Z,3.20
2022-10-20T11:27:19.061Z,2.70
2022-10-20T11:28:19.031Z,2.70
2022-10-20T11:29:18.990Z,3.10
2022-10-20T11:30:18.991Z,2.60
2022-10-20T11:31:18.972Z,2.60
2022-10-20T11:32:18.982Z,2.50
2022-10-20T11:33:18.955Z,2.60
2022-10-20T11:34:18.942Z,2.30
2022-10-20T11:35:18.923Z,2.30
2022-10-20T11:36:18.913Z,2.70
2022-10-20T11:37:18.919Z,2.50
2022-10-20T11:38:18.893Z,2.40
2022-10-20T11:39:18.875Z,2.30
2022-10-20T11:40:18.864Z,2.60
2022-10-20T11:41:18.846Z,2.20
2022-10-20T11:42:18.858Z,2.20
2022-10-20T11:43:18.844Z,2.10
2022-10-20T11:44:18.816Z,2.40
2022-10-20T11:45:18.799Z,2.10
2022-10-20T11:46:18.796Z,2.20
2022-10-20T11:47:18.786Z,2.50
2022-10-20T11:48:19.777Z,2.30
2022-10-20T11:49:18.751Z,2.60
2022-10-20T11:50:18.757Z,2.60
2022-10-20T11:51:18.745Z,3.00
2022-10-20T11:52:18.716Z,2.40
2022-10-20T11:53:18.712Z,2.60
2022-10-20T11:54:18.711Z,2.50
2022-10-20T11:55:18.688Z,2.20
2022-10-20T11:56:18.694Z,2.20
2022-10-20T11:57:18.669Z,2.50
2022-10-20T11:58:19.654Z,2.40
2022-10-20T11:59:18.625Z,2.00
2022-10-20T12:01:18.632Z,2.60
2022-10-20T12:02:18.618Z,2.60
2022-10-20T12:03:18.582Z,2.40
2022-10-20T12:04:18.572Z,1.90
2022-10-20T12:05:18.556Z,2.00
2022-10-20T12:06:18.562Z,2.50
2022-10-20T12:07:18.577Z,2.30
2022-10-20T12:08:29.425Z,2.50
2022-10-20T12:09:19.597Z,2.00
2022-10-20T12:10:18.515Z,1.80
2022-10-20T12:11:18.483Z,2.20
2022-10-20T12:12:18.490Z,2.00
2022-10-20T12:13:18.455Z,2.50
2022-10-20T12:14:19.445Z,2.50
2022-10-20T12:15:19.785Z,2.10
2022-10-20T12:16:18.420Z,2.60
2022-10-20T12:17:18.430Z,2.00
2022-10-20T12:18:18.399Z,2.30
2022-10-20T12:19:18.397Z,2.10
2022-10-20T12:20:18.367Z,2.40
2022-10-20T12:21:18.380Z,1.90
2022-10-20T12:22:18.368Z,2.00
2022-10-20T12:23:18.347Z,2.10
2022-10-20T12:24:18.331Z,2.10
2022-10-20T12:25:18.325Z,2.20
2022-10-20T12:26:18.301Z,2.10
2022-10-20T12:27:18.289Z,2.60
2022-10-20T12:28:18.271Z,4.40
2022-10-20T12:29:18.279Z,2.20
2022-10-20T12:30:18.251Z,2.30
2022-10-20T12:31:18.251Z,2.40
2022-10-20T12:32:18.221Z,2.30
2022-10-20T12:33:18.246Z,2.20
2022-10-20T12:34:18.208Z,2.50
2022-10-20T12:35:18.206Z,2.20
2022-10-20T12:36:18.183Z,2.10
2022-10-20T12:37:18.214Z,2.20
2022-10-20T12:38:18.148Z,2.20
2022-10-20T12:39:18.143Z,2.60
2022-10-20T12:40:19.113Z,2.50
2022-10-20T12:41:18.134Z,2.10
2022-10-20T12:42:18.112Z,2.20
2022-10-20T12:43:18.095Z,2.20
2022-10-20T12:44:18.068Z,2.40
2022-10-20T12:45:19.073Z,2.40
2022-10-20T12:46:21.071Z,2.10
2022-10-20T12:47:18.041Z,2.10
2022-10-20T12:48:18.014Z,2.20
2022-10-20T12:49:18.017Z,2.40
2022-10-20T12:50:17.996Z,2.50
2022-10-20T12:51:17.980Z,2.20
2022-10-20T12:52:18.021Z,2.30
2022-10-20T12:53:17.974Z,2.50
2022-10-20T12:54:17.952Z,2.10
2022-10-20T12:55:17.987Z,2.20
2022-10-20T12:56:17.961Z,2.20
2022-10-20T12:57:17.911Z,2.30
2022-10-20T12:58:17.904Z,2.10
2022-10-20T12:59:17.886Z,2.20
2022-10-20T13:00:17.862Z,2.30
2022-10-20T13:01:17.959Z,2.90
2022-10-20T13:02:17.854Z,2.40
2022-10-20T13:03:18.446Z,2.50
2022-10-20T13:04:17.863Z,2.10
2022-10-20T13:05:17.802Z,1.80
2022-10-20T13:06:17.794Z,2.00
2022-10-20T13:07:17.792Z,2.20
2022-10-20T13:08:17.762Z,2.40
2022-10-20T13:09:17.753Z,2.10
2022-10-20T13:10:17.828Z,2.50
2022-10-20T13:11:18.738Z,2.00
2022-10-20T13:12:17.753Z,2.40
2022-10-20T13:13:17.716Z,2.50
2022-10-20T13:14:17.685Z,2.90
2022-10-20T13:15:17.703Z,2.80
2022-10-20T13:16:18.675Z,2.90
2022-10-20T13:17:17.697Z,2.60
2022-10-20T13:18:17.654Z,2.40
2022-10-20T13:19:17.632Z,2.20
2022-10-20T13:20:17.607Z,2.40
2022-10-20T13:21:18.596Z,2.90
2022-10-20T13:22:17.599Z,2.30
2022-10-20T13:23:17.594Z,2.60
2022-10-20T13:24:17.549Z,2.40
2022-10-20T13:25:17.548Z,2.60
2022-10-20T13:26:18.538Z,2.70
2022-10-20T13:27:17.540Z,2.30
2022-10-20T13:28:17.510Z,2.20
2022-10-20T13:29:17.488Z,2.30
2022-10-20T13:30:17.481Z,2.50
2022-10-20T13:31:17.471Z,2.30
2022-10-20T13:32:17.470Z,2.10
2022-10-20T13:33:33.881Z,2.30
2022-10-20T13:34:18.430Z,2.50
2022-10-20T13:35:17.422Z,2.80
2022-10-20T13:36:18.392Z,2.40
2022-10-20T13:37:22.368Z,2.20
2022-10-20T13:38:18.383Z,2.40
2022-10-20T13:39:17.365Z,2.40
2022-10-20T13:40:22.632Z,3.00
2022-10-20T13:41:18.343Z,2.70
2022-10-20T13:42:17.335Z,2.50
2022-10-20T13:43:17.313Z,2.20
2022-10-20T13:44:18.734Z,2.50
2022-10-20T13:45:17.295Z,2.40
2022-10-20T13:46:17.306Z,2.50
2022-10-20T13:47:17.271Z,2.50
2022-10-20T13:48:17.244Z,2.50
2022-10-20T13:49:17.248Z,2.80
2022-10-20T13:51:19.877Z,2.70
2022-10-20T13:52:17.224Z,2.90
2022-10-20T13:53:17.207Z,3.00
2022-10-20T13:54:17.185Z,2.40